sensor_id;sensor_type;location;lat;lon;timestamp;pressure;altitude;pressure_sealevel;temperature;humidity
22025;BME280;11176;51.448;6.650;2022-11-20T00:01:14;45787.94;;;-141.29;88.56
22025;BME280;11176;51.448;6.650;2022-11-20T00:03:41;45801.94;;;-141.29;89.47
22025;BME280;11176;51.448;6.650;2022-11-20T00:06:11;45805.94;;;-141.29;90.03
22025;BME280;11176;51.448;6.650;2022-11-20T00:08:38;45805.94;;;-141.29;89.98
22025;BME280;11176;51.448;6.650;2022-11-20T00:11:12;45785.94;;;-141.29;90.14
22025;BME280;11176;51.448;6.650;2022-11-20T00:13:42;45817.91;;;-141.29;90.42
22025;BME280;11176;51.448;6.650;2022-11-20T00:16:10;45809.94;;;-141.29;90.49
22025;BME280;11176;51.448;6.650;2022-11-20T00:18:37;45795.94;;;-141.29;90.95
22025;BME280;11176;51.448;6.650;2022-11-20T00:21:06;45817.91;;;-141.29;90.92
22025;BME280;11176;51.448;6.650;2022-11-20T00:23:33;45811.94;;;-141.29;91.01
22025;BME280;11176;51.448;6.650;2022-11-20T00:26:04;45809.94;;;-141.29;90.75
22025;BME280;11176;51.448;6.650;2022-11-20T00:28:31;45803.94;;;-141.29;91.45
22025;BME280;11176;51.448;6.650;2022-11-20T00:31:06;45783.94;;;-141.29;90.47
22025;BME280;11176;51.448;6.650;2022-11-20T00:33:33;45801.94;;;-141.29;91.29
22025;BME280;11176;51.448;6.650;2022-11-20T00:36:01;45803.94;;;-141.29;91.33
22025;BME280;11176;51.448;6.650;2022-11-20T00:38:28;45813.94;;;-141.29;91.53
22025;BME280;11176;51.448;6.650;2022-11-20T00:40:57;45807.94;;;-141.29;91.31
22025;BME280;11176;51.448;6.650;2022-11-20T00:43:24;45793.94;;;-141.29;92.20
22025;BME280;11176;51.448;6.650;2022-11-20T00:45:55;45813.94;;;-141.29;92.18
22025;BME280;11176;51.448;6.650;2022-11-20T00:48:22;45817.91;;;-141.29;92.33
22025;BME280;11176;51.448;6.650;2022-11-20T00:50:48;45805.94;;;-141.29;92.87
22025;BME280;11176;51.448;6.650;2022-11-20T00:53:14;45793.94;;;-141.29;92.62
22025;BME280;11176;51.448;6.650;2022-11-20T00:55:41;45825.91;;;-141.29;93.08
22025;BME280;11176;51.448;6.650;2022-11-20T00:58:07;45793.94;;;-141.29;93.10
22025;BME280;11176;51.448;6.650;2022-11-20T01:00:39;45789.94;;;-141.29;93.10
22025;BME280;11176;51.448;6.650;2022-11-20T01:03:06;45781.94;;;-141.29;92.96
22025;BME280;11176;51.448;6.650;2022-11-20T01:05:34;45805.94;;;-141.29;92.67
22025;BME280;11176;51.448;6.650;2022-11-20T01:08:01;45777.94;;;-141.29;92.55
22025;BME280;11176;51.448;6.650;2022-11-20T01:10:27;45809.94;;;-141.29;92.76
22025;BME280;11176;51.448;6.650;2022-11-20T01:12:53;45783.94;;;-141.29;93.07
22025;BME280;11176;51.448;6.650;2022-11-20T01:15:40;45813.94;;;-141.29;93.44
22025;BME280;11176;51.448;6.650;2022-11-20T01:18:06;45825.91;;;-141.29;93.52
22025;BME280;11176;51.448;6.650;2022-11-20T01:20:36;45807.94;;;-141.29;93.99
22025;BME280;11176;51.448;6.650;2022-11-20T01:23:03;45801.94;;;-141.29;93.70
22025;BME280;11176;51.448;6.650;2022-11-20T01:25:30;45841.91;;;-141.29;93.85
22025;BME280;11176;51.448;6.650;2022-11-20T01:27:56;45829.91;;;-141.29;93.75
22025;BME280;11176;51.448;6.650;2022-11-20T01:30:23;45797.94;;;-141.29;93.84
22025;BME280;11176;51.448;6.650;2022-11-20T01:32:49;45781.94;;;-141.29;94.25
22025;BME280;11176;51.448;6.650;2022-11-20T01:35:16;45797.94;;;-141.29;94.40
22025;BME280;11176;51.448;6.650;2022-11-20T01:37:42;45823.91;;;-141.29;94.43
22025;BME280;11176;51.448;6.650;2022-11-20T01:40:09;45791.94;;;-141.29;94.54
22025;BME280;11176;51.448;6.650;2022-11-20T01:42:36;45817.91;;;-141.29;94.31
22025;BME280;11176;51.448;6.650;2022-11-20T01:45:55;45801.94;;;-141.29;94.22
22025;BME280;11176;51.448;6.650;2022-11-20T01:48:24;45785.94;;;-141.29;93.76
22025;BME280;11176;51.448;6.650;2022-11-20T01:50:52;45795.94;;;-141.29;93.59
22025;BME280;11176;51.448;6.650;2022-11-20T01:53:24;45777.94;;;-141.29;93.68
22025;BME280;11176;51.448;6.650;2022-11-20T01:55:53;45781.94;;;-141.29;93.61
22025;BME280;11176;51.448;6.650;2022-11-20T01:58:27;45805.94;;;-141.29;93.17
22025;BME280;11176;51.448;6.650;2022-11-20T02:00:55;45797.94;;;-141.29;93.24
22025;BME280;11176;51.448;6.650;2022-11-20T02:03:22;45805.94;;;-141.29;93.11
22025;BME280;11176;51.448;6.650;2022-11-20T02:05:54;45767.97;;;-141.29;93.41
22025;BME280;11176;51.448;6.650;2022-11-20T02:08:23;45801.94;;;-141.29;93.90
22025;BME280;11176;51.448;6.650;2022-11-20T02:10:49;45777.94;;;-141.29;93.60
22025;BME280;11176;51.448;6.650;2022-11-20T02:13:16;45781.94;;;-141.29;93.40
22025;BME280;11176;51.448;6.650;2022-11-20T02:16:02;45783.94;;;-141.29;93.22
22025;BME280;11176;51.448;6.650;2022-11-20T02:18:29;45801.94;;;-141.29;92.88
22025;BME280;11176;51.448;6.650;2022-11-20T02:21:06;45773.94;;;-141.29;93.09
22025;BME280;11176;51.448;6.650;2022-11-20T02:26:23;45781.94;;;-141.29;92.57
22025;BME280;11176;51.448;6.650;2022-11-20T02:28:52;45789.94;;;-141.29;93.36
22025;BME280;11176;51.448;6.650;2022-11-20T02:31:20;45765.97;;;-141.29;92.96
22025;BME280;11176;51.448;6.650;2022-11-20T02:33:46;45785.94;;;-141.29;92.84
22025;BME280;11176;51.448;6.650;2022-11-20T02:36:15;45789.94;;;-141.29;92.75
22025;BME280;11176;51.448;6.650;2022-11-20T02:38:42;45769.97;;;-141.29;93.01
22025;BME280;11176;51.448;6.650;2022-11-20T02:41:09;45801.94;;;-141.29;92.36
22025;BME280;11176;51.448;6.650;2022-11-20T02:43:36;45757.97;;;-141.29;92.76
22025;BME280;11176;51.448;6.650;2022-11-20T02:46:02;45773.94;;;-141.29;93.05
22025;BME280;11176;51.448;6.650;2022-11-20T02:48:28;45789.94;;;-141.29;93.26
22025;BME280;11176;51.448;6.650;2022-11-20T02:50:59;45797.94;;;-141.29;92.92
22025;BME280;11176;51.448;6.650;2022-11-20T02:53:26;45779.94;;;-141.29;93.01
22025;BME280;11176;51.448;6.650;2022-11-20T02:55:52;45781.94;;;-141.29;92.98
22025;BME280;11176;51.448;6.650;2022-11-20T02:58:18;45797.94;;;-141.29;92.36
22025;BME280;11176;51.448;6.650;2022-11-20T03:00:45;45773.94;;;-141.29;92.15
22025;BME280;11176;51.448;6.650;2022-11-20T03:03:11;45773.94;;;-141.29;92.78
22025;BME280;11176;51.448;6.650;2022-11-20T03:05:38;45781.94;;;-141.29;92.47
22025;BME280;11176;51.448;6.650;2022-11-20T03:08:04;45809.94;;;-141.29;92.20
22025;BME280;11176;51.448;6.650;2022-11-20T03:10:31;45775.94;;;-141.29;91.82
22025;BME280;11176;51.448;6.650;2022-11-20T03:12:57;45793.94;;;-141.29;92.17
22025;BME280;11176;51.448;6.650;2022-11-20T03:15:24;45789.94;;;-141.29;92.58
22025;BME280;11176;51.448;6.650;2022-11-20T03:17:54;45789.94;;;-141.29;92.69
22025;BME280;11176;51.448;6.650;2022-11-20T03:20:22;45773.94;;;-141.29;92.58
22025;BME280;11176;51.448;6.650;2022-11-20T03:22:48;45777.94;;;-141.29;92.92
22025;BME280;11176;51.448;6.650;2022-11-20T03:25:15;45749.97;;;-141.29;93.56
22025;BME280;11176;51.448;6.650;2022-11-20T03:27:41;45783.94;;;-141.29;93.57
22025;BME280;11176;51.448;6.650;2022-11-20T03:30:08;45751.97;;;-141.29;93.39
22025;BME280;11176;51.448;6.650;2022-11-20T03:32:35;45757.97;;;-141.29;92.97
22025;BME280;11176;51.448;6.650;2022-11-20T03:35:01;45751.97;;;-141.29;93.22
22025;BME280;11176;51.448;6.650;2022-11-20T03:37:28;45771.94;;;-141.29;92.90
22025;BME280;11176;51.448;6.650;2022-11-20T03:39:54;45789.94;;;-141.29;93.31
22025;BME280;11176;51.448;6.650;2022-11-20T03:42:21;45781.94;;;-141.29;93.88
22025;BME280;11176;51.448;6.650;2022-11-20T03:45:06;45789.94;;;-141.29;93.52
22025;BME280;11176;51.448;6.650;2022-11-20T03:47:33;45775.94;;;-141.29;94.05
22025;BME280;11176;51.448;6.650;2022-11-20T03:49:59;45791.94;;;-141.29;93.61
22025;BME280;11176;51.448;6.650;2022-11-20T03:52:25;45781.94;;;-141.29;94.12
22025;BME280;11176;51.448;6.650;2022-11-20T03:54:52;45741.97;;;-141.29;93.68
22025;BME280;11176;51.448;6.650;2022-11-20T03:57:18;45781.94;;;-141.29;93.41
22025;BME280;11176;51.448;6.650;2022-11-20T03:59:45;45765.97;;;-141.29;93.68
22025;BME280;11176;51.448;6.650;2022-11-20T04:02:11;45773.94;;;-141.29;93.79
22025;BME280;11176;51.448;6.650;2022-11-20T04:04:38;45775.94;;;-141.29;94.06
22025;BME280;11176;51.448;6.650;2022-11-20T04:07:04;45789.94;;;-141.29;93.87
22025;BME280;11176;51.448;6.650;2022-11-20T04:09:30;45759.97;;;-141.29;93.38
22025;BME280;11176;51.448;6.650;2022-11-20T04:11:57;45763.97;;;-141.29;93.57
22025;BME280;11176;51.448;6.650;2022-11-20T04:14:23;45765.97;;;-141.29;93.05
22025;BME280;11176;51.448;6.650;2022-11-20T04:16:50;45755.97;;;-141.29;91.84
22025;BME280;11176;51.448;6.650;2022-11-20T04:19:17;45753.97;;;-141.29;91.44
22025;BME280;11176;51.448;6.650;2022-11-20T04:21:44;45759.97;;;-141.29;90.42
22025;BME280;11176;51.448;6.650;2022-11-20T04:24:11;45761.97;;;-141.29;90.18
22025;BME280;11176;51.448;6.650;2022-11-20T04:26:38;45761.97;;;-141.29;90.43
22025;BME280;11176;51.448;6.650;2022-11-20T04:29:04;45753.97;;;-141.29;89.61
22025;BME280;11176;51.448;6.650;2022-11-20T04:31:33;45753.97;;;-141.29;88.57
22025;BME280;11176;51.448;6.650;2022-11-20T04:34:02;45777.94;;;-141.29;88.54
22025;BME280;11176;51.448;6.650;2022-11-20T04:36:29;45761.97;;;-141.29;89.15
22025;BME280;11176;51.448;6.650;2022-11-20T04:38:58;45769.97;;;-141.29;89.47
22025;BME280;11176;51.448;6.650;2022-11-20T04:41:27;45769.97;;;-141.29;89.80
22025;BME280;11176;51.448;6.650;2022-11-20T04:43:56;45753.97;;;-141.29;87.83
22025;BME280;11176;51.448;6.650;2022-11-20T04:46:26;45779.94;;;-141.29;87.59
22025;BME280;11176;51.448;6.650;2022-11-20T04:48:53;45777.94;;;-141.29;88.55
22025;BME280;11176;51.448;6.650;2022-11-20T04:51:20;45779.94;;;-141.29;88.47
22025;BME280;11176;51.448;6.650;2022-11-20T04:53:46;45753.97;;;-141.29;88.94
22025;BME280;11176;51.448;6.650;2022-11-20T04:56:13;45777.94;;;-141.29;89.50
22025;BME280;11176;51.448;6.650;2022-11-20T04:58:40;45771.94;;;-141.29;89.97
22025;BME280;11176;51.448;6.650;2022-11-20T05:01:15;45789.94;;;-141.29;89.34
22025;BME280;11176;51.448;6.650;2022-11-20T05:03:42;45753.97;;;-141.29;89.37
22025;BME280;11176;51.448;6.650;2022-11-20T05:06:12;45779.94;;;-141.29;89.03
22025;BME280;11176;51.448;6.650;2022-11-20T05:08:39;45777.94;;;-141.29;89.23
22025;BME280;11176;51.448;6.650;2022-11-20T05:11:14;45759.97;;;-141.29;89.67
22025;BME280;11176;51.448;6.650;2022-11-20T05:13:41;45755.97;;;-141.29;89.35
22025;BME280;11176;51.448;6.650;2022-11-20T05:16:10;45765.97;;;-141.29;89.09
22025;BME280;11176;51.448;6.650;2022-11-20T05:18:37;45757.97;;;-141.29;89.07
22025;BME280;11176;51.448;6.650;2022-11-20T05:21:04;45761.97;;;-141.29;88.60
22025;BME280;11176;51.448;6.650;2022-11-20T05:23:32;45767.97;;;-141.29;88.96
22025;BME280;11176;51.448;6.650;2022-11-20T05:25:59;45763.97;;;-141.29;88.72
22025;BME280;11176;51.448;6.650;2022-11-20T05:28:28;45753.97;;;-141.29;88.65
22025;BME280;11176;51.448;6.650;2022-11-20T05:30:55;45763.97;;;-141.29;89.07
22025;BME280;11176;51.448;6.650;2022-11-20T05:33:21;45769.97;;;-141.29;89.56
22025;BME280;11176;51.448;6.650;2022-11-20T05:35:48;45767.97;;;-141.29;89.49
22025;BME280;11176;51.448;6.650;2022-11-20T05:38:15;45777.94;;;-141.29;88.63
22025;BME280;11176;51.448;6.650;2022-11-20T05:40:42;45795.94;;;-141.29;88.87
22025;BME280;11176;51.448;6.650;2022-11-20T05:43:08;45761.97;;;-141.29;89.54
22025;BME280;11176;51.448;6.650;2022-11-20T05:45:35;45769.97;;;-141.29;89.69
22025;BME280;11176;51.448;6.650;2022-11-20T05:48:01;45757.97;;;-141.29;90.07
22025;BME280;11176;51.448;6.650;2022-11-20T05:50:28;45769.97;;;-141.29;89.12
22025;BME280;11176;51.448;6.650;2022-11-20T05:52:54;45771.94;;;-141.29;89.63
22025;BME280;11176;51.448;6.650;2022-11-20T05:55:21;45773.94;;;-141.29;90.09
22025;BME280;11176;51.448;6.650;2022-11-20T05:57:47;45777.94;;;-141.29;90.38
22025;BME280;11176;51.448;6.650;2022-11-20T06:00:14;45749.97;;;-141.29;90.51
22025;BME280;11176;51.448;6.650;2022-11-20T06:02:41;45763.97;;;-141.29;90.51
22025;BME280;11176;51.448;6.650;2022-11-20T06:05:07;45769.97;;;-141.29;90.34
22025;BME280;11176;51.448;6.650;2022-11-20T06:07:34;45769.97;;;-141.29;89.58
22025;BME280;11176;51.448;6.650;2022-11-20T06:10:00;45745.97;;;-141.29;89.21
22025;BME280;11176;51.448;6.650;2022-11-20T06:12:27;45765.97;;;-141.29;89.12
22025;BME280;11176;51.448;6.650;2022-11-20T06:14:53;45743.97;;;-141.29;89.52
22025;BME280;11176;51.448;6.650;2022-11-20T06:17:20;45761.97;;;-141.29;89.58
22025;BME280;11176;51.448;6.650;2022-11-20T06:19:46;45763.97;;;-141.29;89.94
22025;BME280;11176;51.448;6.650;2022-11-20T06:22:12;45747.97;;;-141.29;90.62
22025;BME280;11176;51.448;6.650;2022-11-20T06:24:39;45769.97;;;-141.29;91.18
22025;BME280;11176;51.448;6.650;2022-11-20T06:27:05;45757.97;;;-141.29;92.02
22025;BME280;11176;51.448;6.650;2022-11-20T06:29:31;45761.97;;;-141.29;92.74
22025;BME280;11176;51.448;6.650;2022-11-20T06:31:59;45761.97;;;-141.29;92.87
22025;BME280;11176;51.448;6.650;2022-11-20T06:34:26;45769.97;;;-141.29;92.88
22025;BME280;11176;51.448;6.650;2022-11-20T06:36:52;45761.97;;;-141.29;92.87
22025;BME280;11176;51.448;6.650;2022-11-20T06:39:18;45765.97;;;-141.29;92.67
22025;BME280;11176;51.448;6.650;2022-11-20T06:41:46;45753.97;;;-141.29;92.52
22025;BME280;11176;51.448;6.650;2022-11-20T06:44:12;45759.97;;;-141.29;92.46
22025;BME280;11176;51.448;6.650;2022-11-20T06:46:38;45755.97;;;-141.29;92.70
22025;BME280;11176;51.448;6.650;2022-11-20T06:49:05;45767.97;;;-141.29;92.46
22025;BME280;11176;51.448;6.650;2022-11-20T06:51:32;45733.97;;;-141.29;92.14
22025;BME280;11176;51.448;6.650;2022-11-20T06:53:58;45763.97;;;-141.29;92.21
22025;BME280;11176;51.448;6.650;2022-11-20T06:56:27;45789.94;;;-141.29;92.41
22025;BME280;11176;51.448;6.650;2022-11-20T06:58:54;45777.94;;;-141.29;92.77
22025;BME280;11176;51.448;6.650;2022-11-20T07:01:20;45757.97;;;-141.29;92.70
22025;BME280;11176;51.448;6.650;2022-11-20T07:03:49;45771.94;;;-141.29;93.11
22025;BME280;11176;51.448;6.650;2022-11-20T07:06:19;45755.97;;;-141.29;93.35
22025;BME280;11176;51.448;6.650;2022-11-20T07:08:46;45789.94;;;-141.29;93.43
22025;BME280;11176;51.448;6.650;2022-11-20T07:11:13;45741.97;;;-141.29;93.74
22025;BME280;11176;51.448;6.650;2022-11-20T07:13:39;45757.97;;;-141.29;93.74
22025;BME280;11176;51.448;6.650;2022-11-20T07:16:07;45751.97;;;-141.29;94.03
22025;BME280;11176;51.448;6.650;2022-11-20T07:18:35;45763.97;;;-141.29;93.29
22025;BME280;11176;51.448;6.650;2022-11-20T07:21:03;45761.97;;;-141.29;93.36
22025;BME280;11176;51.448;6.650;2022-11-20T07:23:31;45761.97;;;-141.29;92.35
22025;BME280;11176;51.448;6.650;2022-11-20T07:25:58;45745.97;;;-141.29;92.29
22025;BME280;11176;51.448;6.650;2022-11-20T07:28:28;45755.97;;;-141.29;91.81
22025;BME280;11176;51.448;6.650;2022-11-20T07:30:54;45757.97;;;-141.29;92.13
22025;BME280;11176;51.448;6.650;2022-11-20T07:33:21;45753.97;;;-141.29;91.98
22025;BME280;11176;51.448;6.650;2022-11-20T07:35:47;45745.97;;;-141.29;91.91
22025;BME280;11176;51.448;6.650;2022-11-20T07:38:14;45743.97;;;-141.29;91.61
22025;BME280;11176;51.448;6.650;2022-11-20T07:40:40;45735.97;;;-141.29;91.83
22025;BME280;11176;51.448;6.650;2022-11-20T07:43:06;45765.97;;;-141.29;91.92
22025;BME280;11176;51.448;6.650;2022-11-20T07:45:33;45745.97;;;-141.29;91.43
22025;BME280;11176;51.448;6.650;2022-11-20T07:47:59;45749.97;;;-141.29;91.03
22025;BME280;11176;51.448;6.650;2022-11-20T07:50:26;45761.97;;;-141.29;90.96
22025;BME280;11176;51.448;6.650;2022-11-20T07:53:00;45763.97;;;-141.29;90.62
22025;BME280;11176;51.448;6.650;2022-11-20T07:55:26;45753.97;;;-141.29;91.16
22025;BME280;11176;51.448;6.650;2022-11-20T07:57:56;45739.97;;;-141.29;91.49
22025;BME280;11176;51.448;6.650;2022-11-20T08:00:26;45729.97;;;-141.29;92.57
22025;BME280;11176;51.448;6.650;2022-11-20T08:02:53;45745.97;;;-141.29;92.35
22025;BME280;11176;51.448;6.650;2022-11-20T08:05:19;45761.97;;;-141.29;92.13
22025;BME280;11176;51.448;6.650;2022-11-20T08:07:46;45733.97;;;-141.29;92.65
22025;BME280;11176;51.448;6.650;2022-11-20T08:10:14;45763.97;;;-141.29;92.83
22025;BME280;11176;51.448;6.650;2022-11-20T08:12:46;45722.00;;;-141.29;91.83
22025;BME280;11176;51.448;6.650;2022-11-20T08:15:32;45749.97;;;-141.29;90.88
22025;BME280;11176;51.448;6.650;2022-11-20T08:18:02;45755.97;;;-141.29;91.04
22025;BME280;11176;51.448;6.650;2022-11-20T08:20:49;45747.97;;;-141.29;90.69
22025;BME280;11176;51.448;6.650;2022-11-20T08:23:16;45761.97;;;-141.29;89.72
22025;BME280;11176;51.448;6.650;2022-11-20T08:25:42;45749.97;;;-141.29;89.69
22025;BME280;11176;51.448;6.650;2022-11-20T08:28:09;45769.97;;;-141.29;89.65
22025;BME280;11176;51.448;6.650;2022-11-20T08:30:46;45753.97;;;-141.29;89.76
22025;BME280;11176;51.448;6.650;2022-11-20T08:33:12;45753.97;;;-141.29;90.36
22025;BME280;11176;51.448;6.650;2022-11-20T08:35:39;45737.97;;;-141.29;90.36
22025;BME280;11176;51.448;6.650;2022-11-20T08:38:08;45745.97;;;-141.29;90.66
22025;BME280;11176;51.448;6.650;2022-11-20T08:40:35;45729.97;;;-141.29;90.85
22025;BME280;11176;51.448;6.650;2022-11-20T08:43:01;45722.00;;;-141.29;90.47
22025;BME280;11176;51.448;6.650;2022-11-20T08:45:28;45731.97;;;-141.29;90.72
22025;BME280;11176;51.448;6.650;2022-11-20T08:48:03;45718.00;;;-141.29;90.72
22025;BME280;11176;51.448;6.650;2022-11-20T08:50:30;45757.97;;;-141.29;90.80
22025;BME280;11176;51.448;6.650;2022-11-20T08:53:05;45731.97;;;-141.29;90.82
22025;BME280;11176;51.448;6.650;2022-11-20T08:55:32;45745.97;;;-141.29;90.64
22025;BME280;11176;51.448;6.650;2022-11-20T08:58:03;45747.97;;;-141.29;90.58
22025;BME280;11176;51.448;6.650;2022-11-20T09:00:29;45706.00;;;-141.29;90.97
22025;BME280;11176;51.448;6.650;2022-11-20T09:02:56;45725.97;;;-141.29;91.07
22025;BME280;11176;51.448;6.650;2022-11-20T09:05:22;45741.97;;;-141.29;91.54
22025;BME280;11176;51.448;6.650;2022-11-20T09:07:48;45718.00;;;-141.29;91.19
22025;BME280;11176;51.448;6.650;2022-11-20T09:10:15;45729.97;;;-141.29;91.06
22025;BME280;11176;51.448;6.650;2022-11-20T09:12:51;45749.97;;;-141.29;91.30
22025;BME280;11176;51.448;6.650;2022-11-20T09:15:19;45718.00;;;-141.29;91.99
22025;BME280;11176;51.448;6.650;2022-11-20T09:17:59;45729.97;;;-141.29;91.79
22025;BME280;11176;51.448;6.650;2022-11-20T09:20:27;45722.00;;;-141.29;91.91
22025;BME280;11176;51.448;6.650;2022-11-20T09:22:57;45729.97;;;-141.29;90.86
22025;BME280;11176;51.448;6.650;2022-11-20T09:25:24;45731.97;;;-141.29;90.60
22025;BME280;11176;51.448;6.650;2022-11-20T09:27:57;45718.00;;;-141.29;90.18
22025;BME280;11176;51.448;6.650;2022-11-20T09:30:25;45722.00;;;-141.29;90.30
22025;BME280;11176;51.448;6.650;2022-11-20T09:32:51;45710.00;;;-141.29;89.62
22025;BME280;11176;51.448;6.650;2022-11-20T09:35:17;45700.00;;;-141.29;89.52
22025;BME280;11176;51.448;6.650;2022-11-20T09:37:44;45714.00;;;-141.29;89.63
22025;BME280;11176;51.448;6.650;2022-11-20T09:40:20;45720.00;;;-141.29;89.90
22025;BME280;11176;51.448;6.650;2022-11-20T09:42:58;45727.97;;;-141.29;89.91
22025;BME280;11176;51.448;6.650;2022-11-20T09:48:41;45702.00;;;-141.29;89.58
22025;BME280;11176;51.448;6.650;2022-11-20T09:56:13;45698.00;;;-141.29;89.45
22025;BME280;11176;51.448;6.650;2022-11-20T09:58:47;45698.00;;;-141.29;89.77
22025;BME280;11176;51.448;6.650;2022-11-20T10:01:17;45698.00;;;-141.29;89.27
22025;BME280;11176;51.448;6.650;2022-11-20T10:03:58;45708.00;;;-141.29;88.05
22025;BME280;11176;51.448;6.650;2022-11-20T10:06:52;45706.00;;;-141.29;87.94
22025;BME280;11176;51.448;6.650;2022-11-20T10:09:50;45698.00;;;-141.29;88.71
22025;BME280;11176;51.448;6.650;2022-11-20T10:15:24;45682.00;;;-141.29;90.27
22025;BME280;11176;51.448;6.650;2022-11-20T10:23:28;45658.03;;;-141.29;88.35
22025;BME280;11176;51.448;6.650;2022-11-20T10:31:34;45704.00;;;-141.29;88.42
22025;BME280;11176;51.448;6.650;2022-11-20T10:34:05;45680.03;;;-141.29;88.99
22025;BME280;11176;51.448;6.650;2022-11-20T10:36:55;45686.00;;;-141.29;89.58
22025;BME280;11176;51.448;6.650;2022-11-20T10:39:32;45688.00;;;-141.29;89.60
22025;BME280;11176;51.448;6.650;2022-11-20T10:42:00;45694.00;;;-141.29;88.67
22025;BME280;11176;51.448;6.650;2022-11-20T10:44:28;45668.03;;;-141.29;88.29
22025;BME280;11176;51.448;6.650;2022-11-20T10:47:21;45674.03;;;-141.29;87.45
22025;BME280;11176;51.448;6.650;2022-11-20T10:49:51;45650.03;;;-141.29;87.49
22025;BME280;11176;51.448;6.650;2022-11-20T10:52:49;45674.03;;;-141.29;88.21
22025;BME280;11176;51.448;6.650;2022-11-20T10:55:33;45664.03;;;-141.29;87.89
22025;BME280;11176;51.448;6.650;2022-11-20T10:58:22;45686.00;;;-141.29;88.22
22025;BME280;11176;51.448;6.650;2022-11-20T11:00:52;45676.03;;;-141.29;88.20
22025;BME280;11176;51.448;6.650;2022-11-20T11:03:30;45694.00;;;-141.29;87.91
22025;BME280;11176;51.448;6.650;2022-11-20T11:06:08;45714.00;;;-141.29;88.06
22025;BME280;11176;51.448;6.650;2022-11-20T11:08:40;45650.03;;;-141.29;88.63
22025;BME280;11176;51.448;6.650;2022-11-20T11:11:21;45682.00;;;-141.29;88.92
22025;BME280;11176;51.448;6.650;2022-11-20T11:13:48;45654.03;;;-141.29;88.99
22025;BME280;11176;51.448;6.650;2022-11-20T11:16:33;45670.03;;;-141.29;89.28
22025;BME280;11176;51.448;6.650;2022-11-20T11:19:12;45666.03;;;-141.29;89.30
22025;BME280;11176;51.448;6.650;2022-11-20T11:21:46;45660.03;;;-141.29;89.16
22025;BME280;11176;51.448;6.650;2022-11-20T11:24:25;45680.03;;;-141.29;89.46
22025;BME280;11176;51.448;6.650;2022-11-20T11:27:13;45666.03;;;-141.29;90.03
22025;BME280;11176;51.448;6.650;2022-11-20T11:29:43;45658.03;;;-141.29;90.16
22025;BME280;11176;51.448;6.650;2022-11-20T11:32:18;45658.03;;;-141.29;89.86
22025;BME280;11176;51.448;6.650;2022-11-20T11:34:58;45688.00;;;-141.29;89.45
22025;BME280;11176;51.448;6.650;2022-11-20T11:37:33;45668.03;;;-141.29;89.74
22025;BME280;11176;51.448;6.650;2022-11-20T11:40:01;45654.03;;;-141.29;89.62
22025;BME280;11176;51.448;6.650;2022-11-20T11:42:59;45698.00;;;-141.29;89.19
22025;BME280;11176;51.448;6.650;2022-11-20T11:45:27;45658.03;;;-141.29;89.70
22025;BME280;11176;51.448;6.650;2022-11-20T11:47:57;45662.03;;;-141.29;89.96
22025;BME280;11176;51.448;6.650;2022-11-20T11:50:26;45662.03;;;-141.29;89.67
22025;BME280;11176;51.448;6.650;2022-11-20T11:53:17;45638.06;;;-141.29;88.65
22025;BME280;11176;51.448;6.650;2022-11-20T11:56:09;45656.03;;;-141.29;89.28
22025;BME280;11176;51.448;6.650;2022-11-20T11:58:48;45646.03;;;-141.29;89.42
22025;BME280;11176;51.448;6.650;2022-11-20T12:06:36;45678.03;;;-141.29;89.01
22025;BME280;11176;51.448;6.650;2022-11-20T12:09:08;45670.03;;;-141.29;88.58
22025;BME280;11176;51.448;6.650;2022-11-20T12:11:43;45656.03;;;-141.29;89.09
22025;BME280;11176;51.448;6.650;2022-11-20T12:14:19;45664.03;;;-141.29;89.56
22025;BME280;11176;51.448;6.650;2022-11-20T12:16:50;45666.03;;;-141.29;89.10
22025;BME280;11176;51.448;6.650;2022-11-20T12:19:18;45670.03;;;-141.29;89.45
22025;BME280;11176;51.448;6.650;2022-11-20T12:24:38;45644.03;;;-141.29;89.64
22025;BME280;11176;51.448;6.650;2022-11-20T12:30:08;45646.03;;;-141.29;88.83
22025;BME280;11176;51.448;6.650;2022-11-20T12:46:46;45650.03;;;-141.29;86.15
22025;BME280;11176;51.448;6.650;2022-11-20T12:49:34;45642.03;;;-141.29;85.59
22025;BME280;11176;51.448;6.650;2022-11-20T12:54:45;45648.03;;;-141.29;85.90
22025;BME280;11176;51.448;6.650;2022-11-20T12:57:53;45670.03;;;-141.29;86.16
22025;BME280;11176;51.448;6.650;2022-11-20T13:00:22;45634.06;;;-141.29;86.72
22025;BME280;11176;51.448;6.650;2022-11-20T13:03:09;45634.06;;;-141.29;86.74
22025;BME280;11176;51.448;6.650;2022-11-20T13:08:42;45648.03;;;-141.29;89.85
22025;BME280;11176;51.448;6.650;2022-11-20T13:11:31;45644.03;;;-141.29;91.29
22025;BME280;11176;51.448;6.650;2022-11-20T13:14:04;45642.03;;;-141.29;93.25
22025;BME280;11176;51.448;6.650;2022-11-20T13:19:21;45666.03;;;-141.29;95.24
22025;BME280;11176;51.448;6.650;2022-11-20T13:21:49;45642.03;;;-141.29;95.54
22025;BME280;11176;51.448;6.650;2022-11-20T13:26:47;45648.03;;;-141.29;96.67
22025;BME280;11176;51.448;6.650;2022-11-20T13:29:19;45650.03;;;-141.29;96.42
22025;BME280;11176;51.448;6.650;2022-11-20T13:31:47;45670.03;;;-141.29;96.32
22025;BME280;11176;51.448;6.650;2022-11-20T13:34:26;45666.03;;;-141.29;96.03
22025;BME280;11176;51.448;6.650;2022-11-20T13:36:55;45654.03;;;-141.29;96.64
22025;BME280;11176;51.448;6.650;2022-11-20T13:39:27;45650.03;;;-141.29;97.09
22025;BME280;11176;51.448;6.650;2022-11-20T13:42:00;45642.03;;;-141.29;98.08
22025;BME280;11176;51.448;6.650;2022-11-20T13:44:29;45642.03;;;-141.29;98.19
22025;BME280;11176;51.448;6.650;2022-11-20T13:46:59;45652.03;;;-141.29;97.61
22025;BME280;11176;51.448;6.650;2022-11-20T13:49:31;45654.03;;;-141.29;98.22
22025;BME280;11176;51.448;6.650;2022-11-20T13:55:01;45658.03;;;-141.29;98.59
22025;BME280;11176;51.448;6.650;2022-11-20T14:00:11;45644.03;;;-141.29;99.34
22025;BME280;11176;51.448;6.650;2022-11-20T14:02:38;45676.03;;;-141.29;99.45